Timeline UpdatesTrip UpdatesNews PostsPvt Posts♥♥Travel TipsAdmin PostsConv PostsFollowed PostsChat RequestsBlog PostsPNR Posts

Disclaimer
Search
 
 
Sat Nov 1, 2014 01:35:14 ISTHomeTrainsΣChainsAtlasPNRForumGalleryNewsFAQTripsMembersLoginFeedback
No Recent News for this Train
Other Trains in the News **new
Latest...
running with se1
Wed Aug 27, 2014 (09:42AM)
⇐ Return Journey: Train# 18238

18237/Chhattisgarh Express

Time-Table HAS CHANGED.
Sep 01 2014 (11:44PM)
Change Departure Station:
Change Arrival Station:
Post a Train Travel TipPost a Train Travel Tip **new
Post a Comment/Question/Picture/VideoPost a Comment/Question/Picture/Video
Inaugural Run
Sat Jan 01, 1977
Pantry/Catering
✓ Pantry Car Avbl
✓ Catering Avbl
Food is of Average Quality
Loco/Rake Reversals
NGP/Nagpur Junction (8);
RSA - Rake Sharing
58209
Rake/Coach Composition
LOCO-SLR-GS-S1-S2-S3-S4-S5-S6-S7-S8-S9-S10-PC-S11-S12-B3-B2-B1-A1-HA1-GS-SLR-SP1
Loco
BSP - NGP --- ET WAP4 NGP - NZM --- AJNI...
Read more...
WAP7 NZM - ASR ---- TKD WDP4 Author: Mahesh Gupta Entry# 295353
News    PNR    Forum    Time-Table    Availability    Fare Chart    Map    Arr/Dep History    Trips    Gallery    ΣChains    X/O    Timeline    
Travel Time: 41h 55m    83 halts    Distance: 2011 km    Avg Speed: 47 km/hr
Type: Mail/Express
Zone: SECR/South East Central
Departs @ 14:15 (Avg on time)
Platform# 3
SMTWTFS
Bilaspur Junction/BSP 
Arrives @ 08:10 +2 nights (Avg 41m late)
Platform# 3
SMTWTFS
Amritsar Junction/ASR 

83 halts. 279 intermediate Stations between Bilaspur Junction and Amritsar Junction

Show ALL intermediate Stations  Show Old Time-Table

#TrkCodeStation NameX/OArrivesAvgDepartsAvgHaltPFDay#KmSpeedElevZoneAddress
1/==/BSPBilaspur Junction (8)»  -14:15+0310.052271mSECRBilaspur, Chhattisgarh
2/==/BYLBelha  14:34 14:33+714:35+71 2m--115.580269mSECRCollege Road, Chhattisgarh
3/==/BYTBhatapara (4)X  14:59 14:58+1015:00+101 2m--146.271270mSECRBanjari Road, Chhattisgarh
4/==/HNHathbandhX  15:13+1115:14+111m--161.571283mSECRRaipur, Chhattisgarh
5/==/TLDTilda (3)X  15:24 15:23+1115:25+111 2m--172.251 SECRBanjari Rd, Chhattisgarh
6/==/RRaipur Junction (6)XO  16:10+1016:20+810m--1110.484297mSECRRaipur, Chhattisgarh
7/==/BPHBBhilai Power House (3)  16:41 16:40+116:42+11 2m--1138.419312mSECRBhilai, Chhattisgarh
8/==/DURGDurg Junction (6)X  17:10+117:15+35m11147.487299mSECRPh: 91-788-2322059, Chhattisgarh
9/==/RJNRaj Nandgaon (3)X  17:36+1617:38+162m--1177.886313mSECRRajnandgaon, Chhattisgarh
10/==/DGGDongargarh (2)  18:01 18:00+2418:02+261 2m--1209.467 SECRDongargarh, Chhattisgarh
11/==/SKSSalekasa (2)  18:35 18:34+3018:36+301 2m--1245.180312mSECRRajnandgaon, Chhattisgarh
12/==/AGNAmgaon (2)  18:48 18:47+3118:49+311 2m--1259.847317mSECRGondia, Maharashtra
13/==/GGondia Junction (7)  19:18+2119:23+225m--1282.692316mSECRGondia 441601, Maharashtra
14/==/TROTirora (3)  19:43 19:42+2819:44+281 2m--1311.972282mSECRDist Gondia, Maharashtra
15/==/TMRTumsar Road (5)X  20:02 20:01+2620:03+261 2m--1332.372267mSECRDistt. Bhandara, Maharashtra
16/==/BRDBhandara Road (3)  20:19 20:18+2620:20+251 2m--1350.287266mSECRState Highway 252 Bhandara District, Maharashtra
17/==/KPKamptee (3)  20:54 20:53+2520:55+251 2m--1398.219290mSECRKamptee, Maharashtra
18/==/NGPNagpur Junction (8)X21:40+1222:05+1325m31412.583314mCRNagpur 440001, Maharashtra
19/==/KATLKatol (2)X  22:49+2422:50+251m--1473.479 CRKatol. District Nagpur, Maharashtra
20/==/NRKRNarkher Junction (4)  23:09+2723:10+281m--1498.558411mCRDistrict Nagpur, Maharashtra
21/==/PARPandhurna (2)  23:29+2723:30+311m--1516.948481mCRDistt: Chhindwara, Madhya Pradesh
22/==/MTYMultai (2)X  00:21+2900:22+301m--2557.660762mCRMultai, Madhya Pradesh
23/==/AMLAAmla Junction (5)XO  00:45+3301:20+2535m--2580.553733mCRAmla Distt. Betul, Madhya Pradesh
24/==/BZUBetul (3)X  01:46+2201:47+251m--2603.450644mCRBetul, Madhya Pradesh
25/==/GDYAGhoradongri (3)X  02:30+2802:31+291m--2639.339 CRBetul, Madhya Pradesh
26/==/ETItarsi Junction (7)  04:20+904:25+165m--2709.760329mWCRItarsi 461111, Madhya Pradesh
27/==/HBDHoshangabad (2)X  04:44 04:43+2004:45+211 2m--2727.850308mWCRHoshangabad, Madhya Pradesh
28/==/ODGObaidulla Ganj  05:31 05:30+3405:32+351 2m22765.554 WCRObaidullaganj Raisen Dist., Madhya Pradesh
29/==/HBJBhopal HabibGanj (5)XO  06:05+2906:06 06:07+331 2m12795.216496mWCRHabibGanj, Madhya Pradesh
30/==/BPLBhopal Junction (6)X  06:30+2606:35+295m22801.471497mWCRBhopal, Madhya Pradesh
31/==/BHSVidisha (3)X  07:20+3007:22+312m12855.087 WCRVidisha, Madhya Pradesh
32/==/BAQGanj Basoda (4)X  07:50 07:49+3807:51+381 2m12894.346 WCRVidisha, Madhya Pradesh
33/==/MABAMandi Bamora (3)XO  08:29 08:28+2608:30+271 2m12922.823413mWCRState Highway 14, Madhya Pradesh
34/==/BINABina Junction (5)XO  09:15+509:20+95m22940.058414mWCRJn Pt - KATNI/GUNA/ BPL/JHS, Madhya Pradesh
35/==/DUADhaura (3)XO  09:57 09:56+1009:58+121 2m--2974.658407mNCRDhaura Tanda, Madhya Pradesh
36/==/JLNJakhalaun (3)  10:12 10:10+1110:14 10:12+122m--2986.272394mNCRLalitpur(05176-272220), Uttar Pradesh
37/==/LARLalitpur (3)  10:21 10:26+1110:22 10:28+121 2m321002.986373mNCRLalitpur, Uttar Pradesh
38/==/TBTTalbahat (4)  10:50 10:56+1410:52 10:58+162m321042.859314mNCRKhaniyadhana Station Rd, Madhya Pradesh
39/==/BZYBasai (3)X  11:07 11:11+1511:08 11:13+161 2m221055.652287mNCR07522289600(Gate ManMob. - 9452701575), Madhya Pradesh
40/==/BABBabina (3)  11:22 11:27+1511:23 11:29+161 2m221067.749285mNCRBabina, Uttar Pradesh
41/==/JHSJhansi Junction (7)XO  12:10 12:00+1612:18 12:05+258 5m421093.241259mNCRJhansi, Uttar Pradesh
42/==/DAADatia (2)X  12:41 12:42+1512:42 12:44+171 2m121118.349264mNCRDatia, Madhya Pradesh
43/==/SORSonagir (2)X  12:55 12:58+1412:56 13:00+161 2m--21129.881211mNCRDatia, Madhya Pradesh
44/==/DBADabra (3)X  13:13 13:14+2213:14 13:16+241 2m121148.669 NCRDabra(District-Gwalior), Madhya Pradesh
45/==/GWLGwalior Junction (4)X  13:51 13:53+2713:56 13:58+305m221190.977214mNCRGwalior, Madhya Pradesh
46/==/BAOBanmor  14:12 14:13+3814:13 14:15+391 2m--21210.277189mNCRGwalior, Madhya Pradesh
47/==/MRAMorena (3)O  14:34 14:30+4014:35+381 5m221229.570176mNCRMorena, Madhya Pradesh
48/==/DHODholpur Junction (3)X  14:57 14:58+3814:58 15:00+381 2m121256.353177mNCRDholpur, Rajasthan
49/==/AGCAgra Cantt. (6)X  16:00+4516:08+498m221308.930174mNCRAgra, Uttar Pradesh
50/==/RKMRaja Ki Mandi (4)  16:16+5316:17+541m121313.062170mNCRAgra, Uttar Pradesh
51/==/MTJMathura Junction (10)X  17:05+5217:10+525m221362.681179mNCRMathura, Uttar Pradesh
52/==/CHJChata (4)XO  17:33+5517:34+571m221393.847 NCRChhata, Uttar Pradesh
53/==/KSVKosi Kalan (3)X  17:46 17:47+5617:47 17:49+561 2m121404.142189mNCRKosi Kalan, Uttar Pradesh
54/==/PWLPalwal (8)X  18:39 18:50+3018:40 18:52+321 2m--21446.675200mNRPalwal, Haryana
55/==/BVHBallabgarh (5)X  18:59 19:09+4119:00 19:10+431m--21467.744203mNRFaridabad, Haryana
56/==/FDBFaridabad (4)  19:12 19:21+4519:13 19:23+451 2m221475.839206mNRold Faridabad, Haryana
57/==/NZMDelhi Hazrat Nizamuddin (7)  19:45 19:55+5120:15 20:20+5330 25m121496.637209mNRNew Delhi 110013, Delhi NCT
58/==/SBBSahibabad Junction (5)XO  20:53 20:46+1:0220:54 20:47+1:031m--21512.631209mNRGhaziabad, Uttar Pradesh
59/==/GZBGhaziabad Junction (6)X  21:08 21:00+1:0521:10 21:05+1:032 5m121519.350217mNRGhaziabad, Uttar Pradesh
60%==%MUDMuradnagar (2)XO  21:27 21:26+1:1221:28+1:121 2m--21537.061220mNRGhaziabad, Uttar Pradesh
61%==%MDNRModinagar (2)X  21:39 21:38+1:1321:40+1:131 2m--21547.158221mNRGhaziabad, Uttar Pradesh
62%==%MTCMeerut City Junction (6)O  22:00+1:1422:05+1:125m321566.652229mNRMeerut, Uttar Pradesh
63%--%MUTMeerut Cantt. (2)  22:11 22:10+1:1522:12+1:161 2m--21570.979230mNRMeerut, Uttar Pradesh
64%--%KATKhatauli (2)  22:38 22:34+1:1922:39 22:35+1:191m221600.060239mNRKhatauli, Uttar Pradesh
65%--%MOZMuzaffarnagar (3)  22:59 22:57+1:1523:00+1:141 3m221622.272247mNRMuzaffarNagar, Uttar Pradesh
66%--%DBDDeoband (2)  23:21 23:20+1:1323:22+1:121 2m221646.231258mNRSaharanpur, Uttar Pradesh
67/--/SRESaharanpur Junction (6)X  00:20 00:28+1:0200:30 00:45+5810 17m431680.467276mNRSaharanpur, Uttar Pradesh
68/==/JUDYamunanagar-Jagadhri (3)X  00:59 01:12+1:0501:00 01:14+1:051 2m331710.543275mNRYamunanagar, Haryana
69/==/JUDWJagadhri Workshop (2)X  01:08 01:21+1:0601:09 01:23+1:061 2m231715.580280mNRRailway Workshop Road, Haryana
70/==/RAABarara (2)  01:27 01:39+1:0901:28 01:41+1:091 2m231736.840279mNRBarara, Haryana
71/==/UMBAmbala Cantt. Junction (7)X  02:05 02:18+5902:15 02:25+1:0110 7m231761.541278mNRAmbala 133001, Haryana
72/==/UBCAmbala City (3)X  02:29 02:36+1:0302:30 02:38+1:031 2m331769.182273mNRNH-1, Haryana
73/==/RPJRajpura Junction (3)X  02:47 02:53+1:0402:48 02:55+1:051 2m131789.651272mNRNH-1, Punjab
74/==/SIRSirhind Junction (3)XO  03:26 03:24+5403:28 03:26+552m131814.453271mNRSirhind, Punjab
75/==/GVGMandi Gobindgarh (2)O  03:38 03:37+1:0103:39+1:011 2m131824.244268mNRMandi Gobindgarh, Punjab
76/==/KNNKhanna (3)X  03:51 03:50+4403:52+441 2m131832.368269mNRNH 1, Punjab
77/==/LDHLudhiana Junction (7)X  04:30+1:1604:40+1:3610m231875.234246mNRLudhiana 141001, Punjab
78/==/PHRPhillaur Junction (3)X  05:04 05:03+1:3305:05+1:331 2m231888.275246mNRPhillaur, Punjab
79/==/PGWPhagwara Junction (3)X  05:24 05:23+1:3305:25+1:331 2m231910.854245mNRPhagwara, Punjab
80/==/JRCJalandhar Cantt. Junction (3)  05:43+1:3205:45+1:332m131927.129239mNRNear Rama Mandi, Punjab
81/==/JUCJalandhar City Junction (5)X  05:55+1:3206:00+1:345m131931.949239mNRJalandhar 144001, Punjab
82/==/KREKartarpur (2)X  06:19 06:18+1:3206:20+1:321 2m231946.649236mNRKartarpur, Punjab
83/==/BEASBeas Junction (2)  06:47 06:46+1:2706:48+1:271 2m131968.080238mNRBeas, Punjab
84/==/JNLJandiala (2)X  07:07 07:06+1:2807:08+1:281 2m131991.919238mNRJandiala, Punjab
85/==/ASRAmritsar Junction (5)•  08:10+41-332011.1-233mNRAmritsar 143002, Punjab
Scroll to Top
Scroll to Bottom